Terminal Aerodrome Forecast
Issued by NWS Grand Forks, ND

Home | Current Version | Previous Version | Text Only | Print | Product List | Glossary Off
Versions: 1 2 3 4 5 6 7 8 9 10 11 12 13 14 15 16 17 18 19 20

767
FTUS43 KFGF 202321
TAFGFK
TAF
KGFK 202321Z 2100/2124 34007KT P6SM BKN100
     FM210400 35005KT P6SM SCT120
     FM211200 VRB06KT P6SM FEW110=

USA.gov is the U.S. government's official web portal to all federal, state and local government web resources and services.